sensor_id;sensor_type;location;lat;lon;timestamp;P1;durP1;ratioP1;P2;durP2;ratioP2
77457;SDS011;66541;49.346;8.648;2023-04-30T00:00:12;8.57;;;3.03;;
77457;SDS011;66541;49.346;8.648;2023-04-30T00:02:37;7.80;;;2.92;;
77457;SDS011;66541;49.346;8.648;2023-04-30T00:05:03;9.80;;;3.25;;
77457;SDS011;66541;49.346;8.648;2023-04-30T00:07:28;9.30;;;3.33;;
77457;SDS011;66541;49.346;8.648;2023-04-30T00:09:54;9.07;;;3.05;;
77457;SDS011;66541;49.346;8.648;2023-04-30T00:12:19;8.85;;;3.05;;
77457;SDS011;66541;49.346;8.648;2023-04-30T00:14:45;11.95;;;3.70;;
77457;SDS011;66541;49.346;8.648;2023-04-30T00:17:10;8.98;;;3.70;;
77457;SDS011;66541;49.346;8.648;2023-04-30T00:19:36;8.88;;;3.17;;
77457;SDS011;66541;49.346;8.648;2023-04-30T00:22:01;10.00;;;3.03;;
77457;SDS011;66541;49.346;8.648;2023-04-30T00:24:26;10.02;;;3.35;;
77457;SDS011;66541;49.346;8.648;2023-04-30T00:26:52;8.57;;;3.35;;
77457;SDS011;66541;49.346;8.648;2023-04-30T00:29:17;8.73;;;3.28;;
77457;SDS011;66541;49.346;8.648;2023-04-30T00:31:43;9.68;;;3.60;;
77457;SDS011;66541;49.346;8.648;2023-04-30T00:34:08;10.55;;;3.63;;
77457;SDS011;66541;49.346;8.648;2023-04-30T00:36:33;8.13;;;3.05;;
77457;SDS011;66541;49.346;8.648;2023-04-30T00:38:59;8.25;;;3.00;;
77457;SDS011;66541;49.346;8.648;2023-04-30T00:41:24;8.15;;;3.05;;
77457;SDS011;66541;49.346;8.648;2023-04-30T00:43:50;9.10;;;3.50;;
77457;SDS011;66541;49.346;8.648;2023-04-30T00:46:15;8.40;;;2.92;;
77457;SDS011;66541;49.346;8.648;2023-04-30T00:48:40;8.90;;;3.10;;
77457;SDS011;66541;49.346;8.648;2023-04-30T00:51:06;8.88;;;3.00;;
77457;SDS011;66541;49.346;8.648;2023-04-30T00:53:31;8.13;;;2.92;;
77457;SDS011;66541;49.346;8.648;2023-04-30T00:55:57;9.65;;;2.90;;
77457;SDS011;66541;49.346;8.648;2023-04-30T00:58:23;7.60;;;2.30;;
77457;SDS011;66541;49.346;8.648;2023-04-30T01:00:48;9.20;;;2.38;;
77457;SDS011;66541;49.346;8.648;2023-04-30T01:03:13;10.23;;;3.40;;
77457;SDS011;66541;49.346;8.648;2023-04-30T01:05:39;8.00;;;3.10;;
77457;SDS011;66541;49.346;8.648;2023-04-30T01:08:05;9.15;;;2.97;;
77457;SDS011;66541;49.346;8.648;2023-04-30T01:10:33;8.55;;;2.58;;
77457;SDS011;66541;49.346;8.648;2023-04-30T01:15:36;8.18;;;2.90;;
77457;SDS011;66541;49.346;8.648;2023-04-30T01:20:46;7.75;;;2.42;;
77457;SDS011;66541;49.346;8.648;2023-04-30T01:28:35;9.00;;;2.60;;
77457;SDS011;66541;49.346;8.648;2023-04-30T01:31:01;8.38;;;2.55;;
77457;SDS011;66541;49.346;8.648;2023-04-30T01:33:26;7.85;;;2.67;;
77457;SDS011;66541;49.346;8.648;2023-04-30T01:35:57;8.18;;;3.00;;
77457;SDS011;66541;49.346;8.648;2023-04-30T01:38:34;9.35;;;3.00;;
77457;SDS011;66541;49.346;8.648;2023-04-30T01:41:12;10.10;;;3.08;;
77457;SDS011;66541;49.346;8.648;2023-04-30T01:46:41;8.23;;;3.08;;
77457;SDS011;66541;49.346;8.648;2023-04-30T01:49:14;9.05;;;3.20;;
77457;SDS011;66541;49.346;8.648;2023-04-30T01:51:42;8.88;;;3.22;;
77457;SDS011;66541;49.346;8.648;2023-04-30T01:54:18;8.13;;;2.90;;
77457;SDS011;66541;49.346;8.648;2023-04-30T01:56:51;9.98;;;3.55;;
77457;SDS011;66541;49.346;8.648;2023-04-30T01:59:28;8.32;;;3.13;;
77457;SDS011;66541;49.346;8.648;2023-04-30T02:01:55;8.18;;;2.83;;
77457;SDS011;66541;49.346;8.648;2023-04-30T02:04:20;8.32;;;2.90;;
77457;SDS011;66541;49.346;8.648;2023-04-30T02:06:45;7.88;;;2.78;;
77457;SDS011;66541;49.346;8.648;2023-04-30T02:09:11;10.07;;;3.08;;
77457;SDS011;66541;49.346;8.648;2023-04-30T02:11:36;9.18;;;3.28;;
77457;SDS011;66541;49.346;8.648;2023-04-30T02:14:01;7.97;;;2.83;;
77457;SDS011;66541;49.346;8.648;2023-04-30T02:16:27;8.35;;;3.15;;
77457;SDS011;66541;49.346;8.648;2023-04-30T02:18:52;7.93;;;3.13;;
77457;SDS011;66541;49.346;8.648;2023-04-30T02:21:17;9.48;;;3.53;;
77457;SDS011;66541;49.346;8.648;2023-04-30T02:23:43;7.93;;;2.63;;
77457;SDS011;66541;49.346;8.648;2023-04-30T02:26:08;7.57;;;2.70;;
77457;SDS011;66541;49.346;8.648;2023-04-30T02:28:33;9.18;;;2.90;;
77457;SDS011;66541;49.346;8.648;2023-04-30T02:30:59;10.60;;;3.60;;
77457;SDS011;66541;49.346;8.648;2023-04-30T02:33:25;9.77;;;3.38;;
77457;SDS011;66541;49.346;8.648;2023-04-30T02:35:50;9.77;;;3.35;;
77457;SDS011;66541;49.346;8.648;2023-04-30T02:38:15;9.60;;;2.85;;
77457;SDS011;66541;49.346;8.648;2023-04-30T02:40:41;7.93;;;2.75;;
77457;SDS011;66541;49.346;8.648;2023-04-30T02:43:06;9.05;;;2.67;;
77457;SDS011;66541;49.346;8.648;2023-04-30T02:45:32;8.00;;;2.47;;
77457;SDS011;66541;49.346;8.648;2023-04-30T02:47:57;9.98;;;2.55;;
77457;SDS011;66541;49.346;8.648;2023-04-30T02:50:22;7.78;;;2.75;;
77457;SDS011;66541;49.346;8.648;2023-04-30T02:52:48;10.10;;;2.90;;
77457;SDS011;66541;49.346;8.648;2023-04-30T02:55:13;7.78;;;2.95;;
77457;SDS011;66541;49.346;8.648;2023-04-30T02:57:38;8.32;;;2.55;;
77457;SDS011;66541;49.346;8.648;2023-04-30T03:00:04;8.63;;;3.38;;
77457;SDS011;66541;49.346;8.648;2023-04-30T03:02:31;8.48;;;3.17;;
77457;SDS011;66541;49.346;8.648;2023-04-30T03:04:56;9.70;;;3.13;;
77457;SDS011;66541;49.346;8.648;2023-04-30T03:07:21;9.77;;;2.83;;
77457;SDS011;66541;49.346;8.648;2023-04-30T03:09:47;8.80;;;3.20;;
77457;SDS011;66541;49.346;8.648;2023-04-30T03:12:12;8.50;;;2.60;;
77457;SDS011;66541;49.346;8.648;2023-04-30T03:14:38;8.02;;;2.75;;
77457;SDS011;66541;49.346;8.648;2023-04-30T03:17:04;8.43;;;2.70;;
77457;SDS011;66541;49.346;8.648;2023-04-30T03:19:29;8.70;;;3.28;;
77457;SDS011;66541;49.346;8.648;2023-04-30T03:21:54;9.50;;;3.85;;
77457;SDS011;66541;49.346;8.648;2023-04-30T03:24:20;9.98;;;3.00;;
77457;SDS011;66541;49.346;8.648;2023-04-30T03:26:45;9.02;;;2.97;;
77457;SDS011;66541;49.346;8.648;2023-04-30T03:29:11;8.13;;;2.95;;
77457;SDS011;66541;49.346;8.648;2023-04-30T03:31:37;7.93;;;2.90;;
77457;SDS011;66541;49.346;8.648;2023-04-30T03:34:02;8.25;;;2.63;;
77457;SDS011;66541;49.346;8.648;2023-04-30T03:36:27;8.25;;;2.55;;
77457;SDS011;66541;49.346;8.648;2023-04-30T03:38:53;7.40;;;2.83;;
77457;SDS011;66541;49.346;8.648;2023-04-30T03:41:18;8.43;;;2.95;;
77457;SDS011;66541;49.346;8.648;2023-04-30T03:43:43;8.07;;;3.10;;
77457;SDS011;66541;49.346;8.648;2023-04-30T03:46:09;9.57;;;3.20;;
77457;SDS011;66541;49.346;8.648;2023-04-30T03:48:34;8.52;;;2.55;;
77457;SDS011;66541;49.346;8.648;2023-04-30T03:50:59;7.93;;;2.80;;
77457;SDS011;66541;49.346;8.648;2023-04-30T03:53:35;10.00;;;3.30;;
77457;SDS011;66541;49.346;8.648;2023-04-30T03:56:01;8.50;;;3.33;;
77457;SDS011;66541;49.346;8.648;2023-04-30T03:58:27;7.55;;;2.85;;
77457;SDS011;66541;49.346;8.648;2023-04-30T04:00:53;8.25;;;3.10;;
77457;SDS011;66541;49.346;8.648;2023-04-30T04:03:18;7.90;;;3.10;;
77457;SDS011;66541;49.346;8.648;2023-04-30T04:05:47;9.77;;;3.42;;
77457;SDS011;66541;49.346;8.648;2023-04-30T04:08:12;9.32;;;3.22;;
77457;SDS011;66541;49.346;8.648;2023-04-30T04:10:38;8.52;;;3.00;;
77457;SDS011;66541;49.346;8.648;2023-04-30T04:13:04;9.13;;;3.10;;
77457;SDS011;66541;49.346;8.648;2023-04-30T04:15:30;11.35;;;3.45;;
77457;SDS011;66541;49.346;8.648;2023-04-30T04:17:55;9.98;;;3.38;;
77457;SDS011;66541;49.346;8.648;2023-04-30T04:20:20;9.35;;;3.65;;
77457;SDS011;66541;49.346;8.648;2023-04-30T04:22:46;8.90;;;3.67;;
77457;SDS011;66541;49.346;8.648;2023-04-30T04:25:11;10.13;;;3.42;;
77457;SDS011;66541;49.346;8.648;2023-04-30T04:27:37;11.07;;;3.63;;
77457;SDS011;66541;49.346;8.648;2023-04-30T04:30:03;11.15;;;3.65;;
77457;SDS011;66541;49.346;8.648;2023-04-30T04:32:28;9.43;;;3.80;;
77457;SDS011;66541;49.346;8.648;2023-04-30T04:34:54;10.88;;;3.80;;
77457;SDS011;66541;49.346;8.648;2023-04-30T04:37:20;9.00;;;3.83;;
77457;SDS011;66541;49.346;8.648;2023-04-30T04:39:46;8.65;;;3.40;;
77457;SDS011;66541;49.346;8.648;2023-04-30T04:42:11;8.75;;;3.67;;
77457;SDS011;66541;49.346;8.648;2023-04-30T04:44:37;9.50;;;3.40;;
77457;SDS011;66541;49.346;8.648;2023-04-30T04:47:02;9.50;;;4.28;;
77457;SDS011;66541;49.346;8.648;2023-04-30T04:49:28;9.43;;;4.25;;
77457;SDS011;66541;49.346;8.648;2023-04-30T04:51:53;8.70;;;3.83;;
77457;SDS011;66541;49.346;8.648;2023-04-30T04:54:19;9.02;;;3.28;;
77457;SDS011;66541;49.346;8.648;2023-04-30T04:56:45;8.98;;;4.13;;
77457;SDS011;66541;49.346;8.648;2023-04-30T04:59:10;8.95;;;3.53;;
77457;SDS011;66541;49.346;8.648;2023-04-30T05:01:36;8.85;;;3.88;;
77457;SDS011;66541;49.346;8.648;2023-04-30T05:04:01;9.57;;;4.20;;
77457;SDS011;66541;49.346;8.648;2023-04-30T05:06:26;9.60;;;3.72;;
77457;SDS011;66541;49.346;8.648;2023-04-30T05:08:52;9.30;;;4.00;;
77457;SDS011;66541;49.346;8.648;2023-04-30T05:11:19;9.27;;;3.55;;
77457;SDS011;66541;49.346;8.648;2023-04-30T05:13:46;8.82;;;3.78;;
77457;SDS011;66541;49.346;8.648;2023-04-30T05:16:11;10.13;;;3.75;;
77457;SDS011;66541;49.346;8.648;2023-04-30T05:18:36;8.73;;;3.38;;
77457;SDS011;66541;49.346;8.648;2023-04-30T05:21:02;8.80;;;4.45;;
77457;SDS011;66541;49.346;8.648;2023-04-30T05:23:28;14.70;;;4.22;;
77457;SDS011;66541;49.346;8.648;2023-04-30T05:25:53;10.60;;;3.97;;
77457;SDS011;66541;49.346;8.648;2023-04-30T05:28:19;8.55;;;3.40;;
77457;SDS011;66541;49.346;8.648;2023-04-30T05:30:44;8.40;;;3.58;;
77457;SDS011;66541;49.346;8.648;2023-04-30T05:33:10;9.35;;;3.58;;
77457;SDS011;66541;49.346;8.648;2023-04-30T05:35:35;9.68;;;4.40;;
77457;SDS011;66541;49.346;8.648;2023-04-30T05:38:01;9.40;;;3.55;;
77457;SDS011;66541;49.346;8.648;2023-04-30T05:40:27;10.32;;;4.15;;
77457;SDS011;66541;49.346;8.648;2023-04-30T05:42:52;9.35;;;3.80;;
77457;SDS011;66541;49.346;8.648;2023-04-30T05:45:18;9.32;;;3.70;;
77457;SDS011;66541;49.346;8.648;2023-04-30T05:47:43;9.23;;;3.78;;
77457;SDS011;66541;49.346;8.648;2023-04-30T05:50:09;9.10;;;3.60;;
77457;SDS011;66541;49.346;8.648;2023-04-30T05:52:34;9.55;;;3.60;;
77457;SDS011;66541;49.346;8.648;2023-04-30T05:54:59;8.93;;;3.88;;
77457;SDS011;66541;49.346;8.648;2023-04-30T05:57:24;8.80;;;3.38;;
77457;SDS011;66541;49.346;8.648;2023-04-30T05:59:50;9.45;;;4.00;;
77457;SDS011;66541;49.346;8.648;2023-04-30T06:02:15;9.38;;;3.45;;
77457;SDS011;66541;49.346;8.648;2023-04-30T06:04:41;8.02;;;3.38;;
77457;SDS011;66541;49.346;8.648;2023-04-30T06:07:06;7.55;;;3.33;;
77457;SDS011;66541;49.346;8.648;2023-04-30T06:09:31;9.40;;;4.03;;
77457;SDS011;66541;49.346;8.648;2023-04-30T06:11:57;8.43;;;3.35;;
77457;SDS011;66541;49.346;8.648;2023-04-30T06:14:22;9.07;;;3.50;;
77457;SDS011;66541;49.346;8.648;2023-04-30T06:16:48;8.75;;;3.30;;
77457;SDS011;66541;49.346;8.648;2023-04-30T06:19:13;10.20;;;3.72;;
77457;SDS011;66541;49.346;8.648;2023-04-30T06:21:38;8.93;;;3.80;;
77457;SDS011;66541;49.346;8.648;2023-04-30T06:24:04;9.60;;;3.58;;
77457;SDS011;66541;49.346;8.648;2023-04-30T06:26:29;8.32;;;3.40;;
77457;SDS011;66541;49.346;8.648;2023-04-30T06:28:55;9.07;;;3.42;;
77457;SDS011;66541;49.346;8.648;2023-04-30T06:31:20;8.60;;;3.65;;
77457;SDS011;66541;49.346;8.648;2023-04-30T06:33:46;8.45;;;3.15;;
77457;SDS011;66541;49.346;8.648;2023-04-30T06:36:11;9.40;;;3.90;;
77457;SDS011;66541;49.346;8.648;2023-04-30T06:38:37;9.90;;;3.78;;
77457;SDS011;66541;49.346;8.648;2023-04-30T06:41:02;9.95;;;4.00;;
77457;SDS011;66541;49.346;8.648;2023-04-30T06:43:27;9.98;;;4.40;;
77457;SDS011;66541;49.346;8.648;2023-04-30T06:45:53;9.25;;;3.65;;
77457;SDS011;66541;49.346;8.648;2023-04-30T06:48:18;9.30;;;3.80;;
77457;SDS011;66541;49.346;8.648;2023-04-30T06:50:43;9.27;;;3.28;;
77457;SDS011;66541;49.346;8.648;2023-04-30T06:53:12;9.63;;;3.20;;
77457;SDS011;66541;49.346;8.648;2023-04-30T06:55:38;9.88;;;3.08;;
77457;SDS011;66541;49.346;8.648;2023-04-30T06:58:03;11.90;;;3.58;;
77457;SDS011;66541;49.346;8.648;2023-04-30T07:00:30;9.02;;;3.42;;
77457;SDS011;66541;49.346;8.648;2023-04-30T07:02:55;8.93;;;3.70;;
77457;SDS011;66541;49.346;8.648;2023-04-30T07:05:23;8.48;;;3.20;;
77457;SDS011;66541;49.346;8.648;2023-04-30T07:07:48;9.15;;;3.58;;
77457;SDS011;66541;49.346;8.648;2023-04-30T07:10:14;9.93;;;3.53;;
77457;SDS011;66541;49.346;8.648;2023-04-30T07:12:39;8.73;;;3.05;;
77457;SDS011;66541;49.346;8.648;2023-04-30T07:15:05;9.30;;;3.30;;
77457;SDS011;66541;49.346;8.648;2023-04-30T07:17:31;8.30;;;3.17;;
77457;SDS011;66541;49.346;8.648;2023-04-30T07:19:56;8.77;;;3.45;;
77457;SDS011;66541;49.346;8.648;2023-04-30T07:22:21;8.57;;;2.95;;
77457;SDS011;66541;49.346;8.648;2023-04-30T07:24:46;10.48;;;3.42;;
77457;SDS011;66541;49.346;8.648;2023-04-30T07:27:12;8.82;;;3.03;;
77457;SDS011;66541;49.346;8.648;2023-04-30T07:29:37;8.98;;;3.33;;
77457;SDS011;66541;49.346;8.648;2023-04-30T07:32:02;7.90;;;2.92;;
77457;SDS011;66541;49.346;8.648;2023-04-30T07:34:28;8.75;;;3.10;;
77457;SDS011;66541;49.346;8.648;2023-04-30T07:36:54;8.52;;;3.20;;
77457;SDS011;66541;49.346;8.648;2023-04-30T07:39:19;8.32;;;3.22;;
77457;SDS011;66541;49.346;8.648;2023-04-30T07:41:44;8.90;;;3.22;;
77457;SDS011;66541;49.346;8.648;2023-04-30T07:44:10;8.50;;;3.03;;
77457;SDS011;66541;49.346;8.648;2023-04-30T07:46:35;10.00;;;4.00;;
77457;SDS011;66541;49.346;8.648;2023-04-30T07:49:01;8.02;;;2.90;;
77457;SDS011;66541;49.346;8.648;2023-04-30T07:51:26;8.98;;;3.33;;
77457;SDS011;66541;49.346;8.648;2023-04-30T07:53:52;8.35;;;3.20;;
77457;SDS011;66541;49.346;8.648;2023-04-30T07:56:17;9.18;;;3.15;;
77457;SDS011;66541;49.346;8.648;2023-04-30T07:58:42;8.65;;;3.00;;
77457;SDS011;66541;49.346;8.648;2023-04-30T08:01:08;9.43;;;3.15;;
77457;SDS011;66541;49.346;8.648;2023-04-30T08:03:33;8.40;;;3.10;;
77457;SDS011;66541;49.346;8.648;2023-04-30T08:05:58;9.02;;;3.20;;
77457;SDS011;66541;49.346;8.648;2023-04-30T08:08:23;9.10;;;3.20;;
77457;SDS011;66541;49.346;8.648;2023-04-30T08:10:49;9.32;;;3.58;;
77457;SDS011;66541;49.346;8.648;2023-04-30T08:13:14;7.60;;;3.20;;
77457;SDS011;66541;49.346;8.648;2023-04-30T08:15:40;8.13;;;3.28;;
77457;SDS011;66541;49.346;8.648;2023-04-30T08:18:05;8.13;;;3.00;;
77457;SDS011;66541;49.346;8.648;2023-04-30T08:20:31;7.38;;;2.80;;
77457;SDS011;66541;49.346;8.648;2023-04-30T08:22:56;8.95;;;3.08;;
77457;SDS011;66541;49.346;8.648;2023-04-30T08:25:22;8.02;;;2.53;;
77457;SDS011;66541;49.346;8.648;2023-04-30T08:27:47;7.63;;;3.00;;
77457;SDS011;66541;49.346;8.648;2023-04-30T08:30:13;8.10;;;3.08;;
77457;SDS011;66541;49.346;8.648;2023-04-30T08:32:38;8.25;;;2.75;;
77457;SDS011;66541;49.346;8.648;2023-04-30T08:35:03;6.93;;;2.33;;
77457;SDS011;66541;49.346;8.648;2023-04-30T08:37:30;8.70;;;2.47;;
77457;SDS011;66541;49.346;8.648;2023-04-30T08:39:55;7.95;;;2.67;;
77457;SDS011;66541;49.346;8.648;2023-04-30T08:42:20;7.97;;;2.78;;
77457;SDS011;66541;49.346;8.648;2023-04-30T08:44:50;7.03;;;2.30;;
77457;SDS011;66541;49.346;8.648;2023-04-30T08:47:15;6.05;;;2.33;;
77457;SDS011;66541;49.346;8.648;2023-04-30T08:49:41;7.32;;;2.55;;
77457;SDS011;66541;49.346;8.648;2023-04-30T08:52:07;6.28;;;1.90;;
77457;SDS011;66541;49.346;8.648;2023-04-30T08:54:34;6.50;;;2.00;;
77457;SDS011;66541;49.346;8.648;2023-04-30T08:57:00;4.72;;;1.33;;
77457;SDS011;66541;49.346;8.648;2023-04-30T08:59:25;6.20;;;1.58;;
77457;SDS011;66541;49.346;8.648;2023-04-30T09:01:51;6.85;;;1.67;;
77457;SDS011;66541;49.346;8.648;2023-04-30T09:04:16;6.00;;;1.67;;
77457;SDS011;66541;49.346;8.648;2023-04-30T09:06:42;5.00;;;1.38;;
77457;SDS011;66541;49.346;8.648;2023-04-30T09:09:08;5.95;;;1.10;;
77457;SDS011;66541;49.346;8.648;2023-04-30T09:11:35;3.90;;;1.05;;
77457;SDS011;66541;49.346;8.648;2023-04-30T09:14:00;4.15;;;0.70;;
77457;SDS011;66541;49.346;8.648;2023-04-30T09:16:28;4.13;;;1.08;;
77457;SDS011;66541;49.346;8.648;2023-04-30T09:18:56;5.78;;;1.00;;
77457;SDS011;66541;49.346;8.648;2023-04-30T09:21:29;4.80;;;1.10;;
77457;SDS011;66541;49.346;8.648;2023-04-30T09:23:56;5.28;;;0.82;;
77457;SDS011;66541;49.346;8.648;2023-04-30T09:26:29;4.50;;;0.82;;
77457;SDS011;66541;49.346;8.648;2023-04-30T09:28:56;4.40;;;0.80;;
77457;SDS011;66541;49.346;8.648;2023-04-30T09:31:22;3.47;;;0.85;;
77457;SDS011;66541;49.346;8.648;2023-04-30T09:33:48;4.05;;;1.00;;
77457;SDS011;66541;49.346;8.648;2023-04-30T09:36:14;4.22;;;0.95;;
77457;SDS011;66541;49.346;8.648;2023-04-30T09:38:40;5.20;;;1.10;;
77457;SDS011;66541;49.346;8.648;2023-04-30T09:41:05;5.15;;;1.40;;
77457;SDS011;66541;49.346;8.648;2023-04-30T09:43:32;5.93;;;1.55;;
77457;SDS011;66541;49.346;8.648;2023-04-30T09:45:58;5.38;;;1.23;;
77457;SDS011;66541;49.346;8.648;2023-04-30T09:48:24;4.35;;;1.25;;
77457;SDS011;66541;49.346;8.648;2023-04-30T09:50:52;4.63;;;1.10;;
77457;SDS011;66541;49.346;8.648;2023-04-30T09:53:18;5.55;;;1.25;;
77457;SDS011;66541;49.346;8.648;2023-04-30T09:55:44;4.40;;;1.00;;
77457;SDS011;66541;49.346;8.648;2023-04-30T09:58:14;4.82;;;0.90;;
77457;SDS011;66541;49.346;8.648;2023-04-30T10:00:40;4.78;;;1.30;;
77457;SDS011;66541;49.346;8.648;2023-04-30T10:03:10;4.70;;;1.30;;
77457;SDS011;66541;49.346;8.648;2023-04-30T10:05:36;5.65;;;1.30;;
77457;SDS011;66541;49.346;8.648;2023-04-30T10:08:08;5.03;;;1.27;;
77457;SDS011;66541;49.346;8.648;2023-04-30T10:10:36;4.97;;;1.13;;
77457;SDS011;66541;49.346;8.648;2023-04-30T10:13:03;5.47;;;1.75;;
77457;SDS011;66541;49.346;8.648;2023-04-30T10:15:30;5.13;;;1.20;;
77457;SDS011;66541;49.346;8.648;2023-04-30T10:18:01;4.50;;;1.25;;
77457;SDS011;66541;49.346;8.648;2023-04-30T10:20:27;4.55;;;1.20;;
77457;SDS011;66541;49.346;8.648;2023-04-30T10:22:52;5.93;;;1.30;;
77457;SDS011;66541;49.346;8.648;2023-04-30T10:25:18;3.95;;;1.10;;
77457;SDS011;66541;49.346;8.648;2023-04-30T10:27:44;3.67;;;1.10;;
77457;SDS011;66541;49.346;8.648;2023-04-30T10:30:10;11.15;;;1.70;;
77457;SDS011;66541;49.346;8.648;2023-04-30T10:32:47;6.82;;;1.60;;
77457;SDS011;66541;49.346;8.648;2023-04-30T10:37:56;5.00;;;1.50;;
77457;SDS011;66541;49.346;8.648;2023-04-30T10:40:26;6.93;;;1.58;;
77457;SDS011;66541;49.346;8.648;2023-04-30T10:42:52;6.70;;;2.03;;
77457;SDS011;66541;49.346;8.648;2023-04-30T10:45:19;5.32;;;1.50;;
77457;SDS011;66541;49.346;8.648;2023-04-30T10:48:00;5.13;;;1.42;;
77457;SDS011;66541;49.346;8.648;2023-04-30T10:50:26;6.53;;;1.08;;
77457;SDS011;66541;49.346;8.648;2023-04-30T10:53:01;4.70;;;1.20;;
77457;SDS011;66541;49.346;8.648;2023-04-30T10:55:30;5.07;;;1.27;;
77457;SDS011;66541;49.346;8.648;2023-04-30T10:57:59;5.65;;;1.50;;
77457;SDS011;66541;49.346;8.648;2023-04-30T11:00:25;5.60;;;1.35;;
77457;SDS011;66541;49.346;8.648;2023-04-30T11:02:54;6.90;;;1.58;;
77457;SDS011;66541;49.346;8.648;2023-04-30T11:05:23;5.47;;;1.38;;
77457;SDS011;66541;49.346;8.648;2023-04-30T11:08:01;4.47;;;1.27;;
77457;SDS011;66541;49.346;8.648;2023-04-30T11:10:27;5.40;;;1.27;;
77457;SDS011;66541;49.346;8.648;2023-04-30T11:12:56;5.43;;;1.30;;
77457;SDS011;66541;49.346;8.648;2023-04-30T11:15:25;5.00;;;1.58;;
77457;SDS011;66541;49.346;8.648;2023-04-30T11:17:55;5.55;;;1.50;;
77457;SDS011;66541;49.346;8.648;2023-04-30T11:20:22;6.18;;;1.30;;
77457;SDS011;66541;49.346;8.648;2023-04-30T11:23:01;5.20;;;1.40;;
77457;SDS011;66541;49.346;8.648;2023-04-30T11:25:38;5.18;;;1.20;;
77457;SDS011;66541;49.346;8.648;2023-04-30T11:28:05;5.30;;;1.33;;
77457;SDS011;66541;49.346;8.648;2023-04-30T11:30:30;5.50;;;1.40;;
77457;SDS011;66541;49.346;8.648;2023-04-30T11:32:58;4.30;;;1.40;;
77457;SDS011;66541;49.346;8.648;2023-04-30T11:35:23;6.25;;;1.58;;
77457;SDS011;66541;49.346;8.648;2023-04-30T11:37:49;5.38;;;1.23;;
77457;SDS011;66541;49.346;8.648;2023-04-30T11:42:44;6.33;;;1.20;;
77457;SDS011;66541;49.346;8.648;2023-04-30T11:45:13;5.45;;;1.05;;
77457;SDS011;66541;49.346;8.648;2023-04-30T11:47:45;4.88;;;0.90;;
77457;SDS011;66541;49.346;8.648;2023-04-30T11:50:13;6.70;;;1.25;;
77457;SDS011;66541;49.346;8.648;2023-04-30T11:52:40;4.90;;;1.15;;
77457;SDS011;66541;49.346;8.648;2023-04-30T11:55:11;6.07;;;1.65;;
77457;SDS011;66541;49.346;8.648;2023-04-30T11:57:41;6.72;;;1.48;;
77457;SDS011;66541;49.346;8.648;2023-04-30T12:00:11;3.97;;;1.02;;
77457;SDS011;66541;49.346;8.648;2023-04-30T12:02:41;6.00;;;1.30;;
77457;SDS011;66541;49.346;8.648;2023-04-30T12:05:16;6.15;;;1.33;;
77457;SDS011;66541;49.346;8.648;2023-04-30T12:07:46;5.38;;;1.05;;
77457;SDS011;66541;49.346;8.648;2023-04-30T12:10:12;5.43;;;1.10;;
77457;SDS011;66541;49.346;8.648;2023-04-30T12:12:38;4.88;;;1.00;;
77457;SDS011;66541;49.346;8.648;2023-04-30T12:15:12;5.15;;;1.25;;
77457;SDS011;66541;49.346;8.648;2023-04-30T12:17:42;5.03;;;1.40;;
77457;SDS011;66541;49.346;8.648;2023-04-30T12:20:08;5.78;;;1.27;;
77457;SDS011;66541;49.346;8.648;2023-04-30T12:22:35;5.63;;;1.45;;
77457;SDS011;66541;49.346;8.648;2023-04-30T12:25:04;4.85;;;1.00;;
77457;SDS011;66541;49.346;8.648;2023-04-30T12:27:32;6.40;;;1.40;;
77457;SDS011;66541;49.346;8.648;2023-04-30T12:30:01;6.00;;;1.30;;
77457;SDS011;66541;49.346;8.648;2023-04-30T12:32:27;5.05;;;1.25;;
77457;SDS011;66541;49.346;8.648;2023-04-30T12:34:56;4.45;;;1.13;;
77457;SDS011;66541;49.346;8.648;2023-04-30T12:37:25;4.88;;;1.17;;
77457;SDS011;66541;49.346;8.648;2023-04-30T12:39:50;5.05;;;1.27;;
77457;SDS011;66541;49.346;8.648;2023-04-30T12:42:17;6.30;;;1.33;;
77457;SDS011;66541;49.346;8.648;2023-04-30T12:44:43;4.95;;;1.10;;
77457;SDS011;66541;49.346;8.648;2023-04-30T12:47:09;4.15;;;1.10;;
77457;SDS011;66541;49.346;8.648;2023-04-30T12:49:34;4.00;;;1.02;;
77457;SDS011;66541;49.346;8.648;2023-04-30T12:52:01;4.60;;;1.08;;
77457;SDS011;66541;49.346;8.648;2023-04-30T12:54:33;5.88;;;1.15;;
77457;SDS011;66541;49.346;8.648;2023-04-30T12:57:09;6.60;;;1.40;;
77457;SDS011;66541;49.346;8.648;2023-04-30T12:59:37;5.95;;;1.45;;
77457;SDS011;66541;49.346;8.648;2023-04-30T13:02:11;3.75;;;1.42;;
77457;SDS011;66541;49.346;8.648;2023-04-30T13:04:37;4.95;;;1.13;;
77457;SDS011;66541;49.346;8.648;2023-04-30T13:07:04;5.68;;;1.17;;
77457;SDS011;66541;49.346;8.648;2023-04-30T13:09:30;4.63;;;1.00;;
77457;SDS011;66541;49.346;8.648;2023-04-30T13:11:56;4.55;;;0.82;;
77457;SDS011;66541;49.346;8.648;2023-04-30T13:14:22;5.53;;;1.73;;
77457;SDS011;66541;49.346;8.648;2023-04-30T13:16:47;5.35;;;1.40;;
77457;SDS011;66541;49.346;8.648;2023-04-30T13:19:12;6.57;;;1.35;;
77457;SDS011;66541;49.346;8.648;2023-04-30T13:21:38;6.35;;;1.10;;
77457;SDS011;66541;49.346;8.648;2023-04-30T13:24:03;6.07;;;1.27;;
77457;SDS011;66541;49.346;8.648;2023-04-30T13:26:29;4.97;;;1.15;;
77457;SDS011;66541;49.346;8.648;2023-04-30T13:28:54;4.95;;;1.30;;
77457;SDS011;66541;49.346;8.648;2023-04-30T13:31:20;5.63;;;1.20;;
77457;SDS011;66541;49.346;8.648;2023-04-30T13:33:46;6.97;;;1.52;;
77457;SDS011;66541;49.346;8.648;2023-04-30T13:36:11;5.22;;;1.13;;
77457;SDS011;66541;49.346;8.648;2023-04-30T13:38:37;5.00;;;1.10;;
77457;SDS011;66541;49.346;8.648;2023-04-30T13:41:03;3.60;;;1.13;;
77457;SDS011;66541;49.346;8.648;2023-04-30T13:43:29;4.72;;;0.80;;
77457;SDS011;66541;49.346;8.648;2023-04-30T13:45:55;3.40;;;1.13;;
77457;SDS011;66541;49.346;8.648;2023-04-30T13:48:20;4.97;;;1.30;;
77457;SDS011;66541;49.346;8.648;2023-04-30T13:50:46;4.25;;;1.15;;
77457;SDS011;66541;49.346;8.648;2023-04-30T13:53:11;4.28;;;0.90;;
77457;SDS011;66541;49.346;8.648;2023-04-30T13:55:37;4.35;;;0.95;;
77457;SDS011;66541;49.346;8.648;2023-04-30T13:58:02;4.07;;;1.00;;
77457;SDS011;66541;49.346;8.648;2023-04-30T14:00:27;4.45;;;1.25;;
77457;SDS011;66541;49.346;8.648;2023-04-30T14:02:53;3.72;;;1.10;;
77457;SDS011;66541;49.346;8.648;2023-04-30T14:05:20;4.25;;;0.90;;
77457;SDS011;66541;49.346;8.648;2023-04-30T14:07:46;6.10;;;0.90;;
77457;SDS011;66541;49.346;8.648;2023-04-30T14:10:11;4.40;;;1.02;;
77457;SDS011;66541;49.346;8.648;2023-04-30T14:12:36;6.05;;;1.50;;
77457;SDS011;66541;49.346;8.648;2023-04-30T14:15:02;3.03;;;0.80;;
77457;SDS011;66541;49.346;8.648;2023-04-30T14:17:28;3.95;;;0.60;;
77457;SDS011;66541;49.346;8.648;2023-04-30T14:19:54;4.05;;;1.15;;
77457;SDS011;66541;49.346;8.648;2023-04-30T14:22:19;3.20;;;1.25;;
77457;SDS011;66541;49.346;8.648;2023-04-30T14:24:45;4.18;;;0.98;;
77457;SDS011;66541;49.346;8.648;2023-04-30T14:27:10;4.95;;;0.95;;
77457;SDS011;66541;49.346;8.648;2023-04-30T14:29:36;4.63;;;1.10;;
77457;SDS011;66541;49.346;8.648;2023-04-30T14:32:01;4.68;;;1.30;;
77457;SDS011;66541;49.346;8.648;2023-04-30T14:34:28;3.72;;;0.80;;
77457;SDS011;66541;49.346;8.648;2023-04-30T14:36:53;3.63;;;0.98;;
77457;SDS011;66541;49.346;8.648;2023-04-30T14:39:18;4.78;;;1.13;;
77457;SDS011;66541;49.346;8.648;2023-04-30T14:41:44;5.63;;;0.90;;
77457;SDS011;66541;49.346;8.648;2023-04-30T14:44:09;4.80;;;1.40;;
77457;SDS011;66541;49.346;8.648;2023-04-30T14:46:35;4.60;;;1.00;;
77457;SDS011;66541;49.346;8.648;2023-04-30T14:49:00;4.72;;;0.93;;
77457;SDS011;66541;49.346;8.648;2023-04-30T14:51:25;2.70;;;0.73;;
77457;SDS011;66541;49.346;8.648;2023-04-30T14:53:52;3.25;;;0.73;;
77457;SDS011;66541;49.346;8.648;2023-04-30T14:56:18;4.20;;;0.90;;
77457;SDS011;66541;49.346;8.648;2023-04-30T14:58:43;3.75;;;0.82;;
77457;SDS011;66541;49.346;8.648;2023-04-30T15:01:08;2.80;;;0.70;;